sensor_id;sensor_type;location;lat;lon;timestamp;P1;durP1;ratioP1;P2;durP2;ratioP2
44824;SDS011;30542;47.928;2.138;2023-08-17T00:01:19;1.67;;;1.20;;
44824;SDS011;30542;47.928;2.138;2023-08-17T00:06:19;2.22;;;1.33;;
44824;SDS011;30542;47.928;2.138;2023-08-17T00:11:20;1.70;;;1.33;;
44824;SDS011;30542;47.928;2.138;2023-08-17T00:16:20;1.97;;;1.40;;
44824;SDS011;30542;47.928;2.138;2023-08-17T00:21:20;1.43;;;1.20;;
44824;SDS011;30542;47.928;2.138;2023-08-17T00:26:21;2.43;;;1.70;;
44824;SDS011;30542;47.928;2.138;2023-08-17T00:31:21;1.88;;;1.35;;
44824;SDS011;30542;47.928;2.138;2023-08-17T00:36:22;1.57;;;1.47;;
44824;SDS011;30542;47.928;2.138;2023-08-17T00:41:22;1.87;;;1.63;;
44824;SDS011;30542;47.928;2.138;2023-08-17T00:46:22;1.67;;;1.57;;
44824;SDS011;30542;47.928;2.138;2023-08-17T00:51:24;3.17;;;1.75;;
44824;SDS011;30542;47.928;2.138;2023-08-17T00:56:26;2.28;;;1.63;;
44824;SDS011;30542;47.928;2.138;2023-08-17T01:01:27;2.53;;;1.50;;
44824;SDS011;30542;47.928;2.138;2023-08-17T01:06:28;2.70;;;1.80;;
44824;SDS011;30542;47.928;2.138;2023-08-17T01:17:19;2.75;;;1.70;;
44824;SDS011;30542;47.928;2.138;2023-08-17T01:22:24;2.45;;;1.85;;
44824;SDS011;30542;47.928;2.138;2023-08-17T01:27:40;3.15;;;2.00;;
44824;SDS011;30542;47.928;2.138;2023-08-17T01:32:48;2.25;;;2.05;;
44824;SDS011;30542;47.928;2.138;2023-08-17T01:37:55;2.67;;;1.88;;
44824;SDS011;30542;47.928;2.138;2023-08-17T01:43:00;1.90;;;1.73;;
44824;SDS011;30542;47.928;2.138;2023-08-17T01:48:02;2.35;;;1.80;;
44824;SDS011;30542;47.928;2.138;2023-08-17T01:53:03;3.55;;;2.08;;
44824;SDS011;30542;47.928;2.138;2023-08-17T01:58:03;2.28;;;1.70;;
44824;SDS011;30542;47.928;2.138;2023-08-17T02:03:04;4.57;;;1.83;;
44824;SDS011;30542;47.928;2.138;2023-08-17T02:08:04;2.80;;;2.00;;
44824;SDS011;30542;47.928;2.138;2023-08-17T02:13:04;2.72;;;1.92;;
44824;SDS011;30542;47.928;2.138;2023-08-17T02:18:05;3.30;;;1.80;;
44824;SDS011;30542;47.928;2.138;2023-08-17T02:23:05;2.07;;;1.87;;
44824;SDS011;30542;47.928;2.138;2023-08-17T02:28:06;2.03;;;1.87;;
44824;SDS011;30542;47.928;2.138;2023-08-17T02:33:06;3.13;;;2.30;;
44824;SDS011;30542;47.928;2.138;2023-08-17T02:38:06;2.23;;;2.00;;
44824;SDS011;30542;47.928;2.138;2023-08-17T02:43:07;2.37;;;2.17;;
44824;SDS011;30542;47.928;2.138;2023-08-17T02:48:07;2.65;;;2.45;;
44824;SDS011;30542;47.928;2.138;2023-08-17T02:53:08;3.15;;;2.30;;
44824;SDS011;30542;47.928;2.138;2023-08-17T02:58:08;2.50;;;2.30;;
44824;SDS011;30542;47.928;2.138;2023-08-17T03:03:09;2.67;;;2.47;;
44824;SDS011;30542;47.928;2.138;2023-08-17T03:08:09;2.95;;;2.75;;
44824;SDS011;30542;47.928;2.138;2023-08-17T03:13:09;3.23;;;2.60;;
44824;SDS011;30542;47.928;2.138;2023-08-17T03:18:10;2.60;;;2.50;;
44824;SDS011;30542;47.928;2.138;2023-08-17T03:23:10;3.55;;;2.78;;
44824;SDS011;30542;47.928;2.138;2023-08-17T03:28:11;3.28;;;2.60;;
44824;SDS011;30542;47.928;2.138;2023-08-17T03:33:11;2.53;;;2.33;;
44824;SDS011;30542;47.928;2.138;2023-08-17T03:38:12;3.20;;;2.90;;
44824;SDS011;30542;47.928;2.138;2023-08-17T03:43:13;3.55;;;2.90;;
44824;SDS011;30542;47.928;2.138;2023-08-17T03:48:13;3.97;;;3.38;;
44824;SDS011;30542;47.928;2.138;2023-08-17T03:53:14;3.63;;;2.83;;
44824;SDS011;30542;47.928;2.138;2023-08-17T03:58:14;3.90;;;3.03;;
44824;SDS011;30542;47.928;2.138;2023-08-17T04:03:15;4.38;;;3.03;;
44824;SDS011;30542;47.928;2.138;2023-08-17T04:08:16;3.93;;;3.43;;
44824;SDS011;30542;47.928;2.138;2023-08-17T04:13:16;3.47;;;3.17;;
44824;SDS011;30542;47.928;2.138;2023-08-17T04:18:16;3.83;;;3.53;;
44824;SDS011;30542;47.928;2.138;2023-08-17T04:23:16;3.37;;;3.17;;
44824;SDS011;30542;47.928;2.138;2023-08-17T04:28:17;4.27;;;3.93;;
44824;SDS011;30542;47.928;2.138;2023-08-17T04:33:17;3.60;;;3.30;;
44824;SDS011;30542;47.928;2.138;2023-08-17T04:38:17;3.50;;;3.30;;
44824;SDS011;30542;47.928;2.138;2023-08-17T04:43:18;5.53;;;4.77;;
44824;SDS011;30542;47.928;2.138;2023-08-17T04:48:18;4.45;;;4.07;;
44824;SDS011;30542;47.928;2.138;2023-08-17T04:53:19;5.10;;;4.80;;
44824;SDS011;30542;47.928;2.138;2023-08-17T04:58:19;5.03;;;4.50;;
44824;SDS011;30542;47.928;2.138;2023-08-17T05:03:19;5.73;;;5.23;;
44824;SDS011;30542;47.928;2.138;2023-08-17T05:08:20;5.13;;;4.73;;
44824;SDS011;30542;47.928;2.138;2023-08-17T05:13:22;5.82;;;5.43;;
44824;SDS011;30542;47.928;2.138;2023-08-17T05:18:22;5.70;;;5.10;;
44824;SDS011;30542;47.928;2.138;2023-08-17T05:23:22;6.00;;;5.50;;
44824;SDS011;30542;47.928;2.138;2023-08-17T05:28:23;6.40;;;5.67;;
44824;SDS011;30542;47.928;2.138;2023-08-17T05:33:23;5.97;;;5.47;;
44824;SDS011;30542;47.928;2.138;2023-08-17T05:38:23;6.93;;;6.43;;
44824;SDS011;30542;47.928;2.138;2023-08-17T05:43:24;7.87;;;7.07;;
44824;SDS011;30542;47.928;2.138;2023-08-17T05:48:25;7.20;;;6.53;;
44824;SDS011;30542;47.928;2.138;2023-08-17T05:53:25;7.00;;;6.40;;
44824;SDS011;30542;47.928;2.138;2023-08-17T05:58:25;8.00;;;7.40;;
44824;SDS011;30542;47.928;2.138;2023-08-17T06:03:26;7.43;;;6.83;;
44824;SDS011;30542;47.928;2.138;2023-08-17T06:08:26;9.07;;;7.57;;
44824;SDS011;30542;47.928;2.138;2023-08-17T06:13:27;8.70;;;7.82;;
44824;SDS011;30542;47.928;2.138;2023-08-17T06:18:27;7.80;;;7.20;;
44824;SDS011;30542;47.928;2.138;2023-08-17T06:23:27;9.30;;;8.60;;
44824;SDS011;30542;47.928;2.138;2023-08-17T06:28:28;9.00;;;8.20;;
44824;SDS011;30542;47.928;2.138;2023-08-17T06:33:28;9.60;;;8.80;;
44824;SDS011;30542;47.928;2.138;2023-08-17T06:38:28;10.17;;;9.17;;
44824;SDS011;30542;47.928;2.138;2023-08-17T06:43:29;10.40;;;9.27;;
44824;SDS011;30542;47.928;2.138;2023-08-17T06:48:29;9.60;;;8.80;;
44824;SDS011;30542;47.928;2.138;2023-08-17T06:53:31;9.73;;;8.90;;
44824;SDS011;30542;47.928;2.138;2023-08-17T06:58:31;10.37;;;9.37;;
44824;SDS011;30542;47.928;2.138;2023-08-17T07:03:32;9.53;;;8.77;;
44824;SDS011;30542;47.928;2.138;2023-08-17T07:08:33;10.18;;;9.30;;
44824;SDS011;30542;47.928;2.138;2023-08-17T07:13:33;10.63;;;9.63;;
44824;SDS011;30542;47.928;2.138;2023-08-17T07:18:34;10.07;;;9.07;;
44824;SDS011;30542;47.928;2.138;2023-08-17T07:23:34;10.77;;;9.88;;
44824;SDS011;30542;47.928;2.138;2023-08-17T07:28:35;9.83;;;8.80;;
44824;SDS011;30542;47.928;2.138;2023-08-17T07:33:35;9.43;;;8.60;;
44824;SDS011;30542;47.928;2.138;2023-08-17T07:38:35;10.37;;;9.37;;
44824;SDS011;30542;47.928;2.138;2023-08-17T07:43:36;10.23;;;8.93;;
44824;SDS011;30542;47.928;2.138;2023-08-17T07:48:36;10.23;;;9.02;;
44824;SDS011;30542;47.928;2.138;2023-08-17T07:53:36;10.10;;;9.10;;
44824;SDS011;30542;47.928;2.138;2023-08-17T07:58:37;8.90;;;8.15;;
44824;SDS011;30542;47.928;2.138;2023-08-17T08:03:37;9.87;;;8.70;;
44824;SDS011;30542;47.928;2.138;2023-08-17T08:08:38;9.37;;;8.47;;
44824;SDS011;30542;47.928;2.138;2023-08-17T08:13:39;9.13;;;8.30;;
44824;SDS011;30542;47.928;2.138;2023-08-17T08:18:39;8.90;;;8.20;;
44824;SDS011;30542;47.928;2.138;2023-08-17T08:23:40;8.80;;;8.10;;
44824;SDS011;30542;47.928;2.138;2023-08-17T08:28:40;7.88;;;7.20;;
44824;SDS011;30542;47.928;2.138;2023-08-17T08:33:40;7.50;;;6.90;;
44824;SDS011;30542;47.928;2.138;2023-08-17T08:38:41;8.07;;;7.25;;
44824;SDS011;30542;47.928;2.138;2023-08-17T08:43:41;7.13;;;6.70;;
44824;SDS011;30542;47.928;2.138;2023-08-17T08:48:41;7.37;;;6.77;;
44824;SDS011;30542;47.928;2.138;2023-08-17T08:53:45;5.97;;;5.55;;
44824;SDS011;30542;47.928;2.138;2023-08-17T08:58:46;6.50;;;6.00;;
44824;SDS011;30542;47.928;2.138;2023-08-17T09:03:47;6.15;;;5.75;;
44824;SDS011;30542;47.928;2.138;2023-08-17T09:08:48;5.53;;;5.03;;
44824;SDS011;30542;47.928;2.138;2023-08-17T09:13:49;6.25;;;5.65;;
44824;SDS011;30542;47.928;2.138;2023-08-17T09:18:51;5.35;;;5.03;;
44824;SDS011;30542;47.928;2.138;2023-08-17T09:23:54;5.63;;;5.22;;
44824;SDS011;30542;47.928;2.138;2023-08-17T09:28:55;5.75;;;5.22;;
44824;SDS011;30542;47.928;2.138;2023-08-17T09:33:58;5.30;;;4.85;;
44824;SDS011;30542;47.928;2.138;2023-08-17T09:38:58;5.70;;;5.20;;
44824;SDS011;30542;47.928;2.138;2023-08-17T09:44:00;5.22;;;4.78;;
44824;SDS011;30542;47.928;2.138;2023-08-17T09:49:03;5.70;;;5.20;;
44824;SDS011;30542;47.928;2.138;2023-08-17T09:54:05;6.13;;;5.53;;
44824;SDS011;30542;47.928;2.138;2023-08-17T09:59:06;5.65;;;5.25;;
44824;SDS011;30542;47.928;2.138;2023-08-17T10:04:06;6.73;;;6.10;;
44824;SDS011;30542;47.928;2.138;2023-08-17T10:09:06;5.57;;;5.07;;
44824;SDS011;30542;47.928;2.138;2023-08-17T10:14:15;6.25;;;5.75;;
44824;SDS011;30542;47.928;2.138;2023-08-17T10:19:23;6.07;;;5.68;;
44824;SDS011;30542;47.928;2.138;2023-08-17T10:24:30;6.22;;;5.72;;
44824;SDS011;30542;47.928;2.138;2023-08-17T10:29:36;6.28;;;5.78;;
44824;SDS011;30542;47.928;2.138;2023-08-17T10:34:38;5.93;;;5.47;;
44824;SDS011;30542;47.928;2.138;2023-08-17T10:39:44;5.65;;;5.25;;
44824;SDS011;30542;47.928;2.138;2023-08-17T10:44:46;5.82;;;5.32;;
44824;SDS011;30542;47.928;2.138;2023-08-17T10:50:00;5.53;;;5.10;;
44824;SDS011;30542;47.928;2.138;2023-08-17T10:55:05;5.00;;;4.50;;
44824;SDS011;30542;47.928;2.138;2023-08-17T11:00:20;5.30;;;4.90;;
44824;SDS011;30542;47.928;2.138;2023-08-17T11:10:39;5.18;;;4.78;;
44824;SDS011;30542;47.928;2.138;2023-08-17T11:15:40;5.57;;;5.07;;
44824;SDS011;30542;47.928;2.138;2023-08-17T11:20:42;5.65;;;5.25;;
44824;SDS011;30542;47.928;2.138;2023-08-17T11:25:43;5.88;;;5.35;;
44824;SDS011;30542;47.928;2.138;2023-08-17T11:30:44;5.63;;;5.22;;
44824;SDS011;30542;47.928;2.138;2023-08-17T11:35:44;5.43;;;5.03;;
44824;SDS011;30542;47.928;2.138;2023-08-17T11:40:45;6.20;;;5.70;;
44824;SDS011;30542;47.928;2.138;2023-08-17T11:45:46;5.80;;;5.13;;
44824;SDS011;30542;47.928;2.138;2023-08-17T11:50:46;6.17;;;5.67;;
44824;SDS011;30542;47.928;2.138;2023-08-17T11:55:48;5.60;;;5.10;;
44824;SDS011;30542;47.928;2.138;2023-08-17T12:00:48;5.55;;;5.13;;
44824;SDS011;30542;47.928;2.138;2023-08-17T12:05:49;6.37;;;5.80;;
44824;SDS011;30542;47.928;2.138;2023-08-17T12:10:50;6.38;;;5.45;;
44824;SDS011;30542;47.928;2.138;2023-08-17T12:15:52;5.57;;;5.18;;
44824;SDS011;30542;47.928;2.138;2023-08-17T12:20:53;6.00;;;5.30;;
44824;SDS011;30542;47.928;2.138;2023-08-17T12:25:54;5.57;;;5.05;;
44824;SDS011;30542;47.928;2.138;2023-08-17T12:30:59;5.45;;;5.05;;
44824;SDS011;30542;47.928;2.138;2023-08-17T12:36:00;5.45;;;5.05;;
44824;SDS011;30542;47.928;2.138;2023-08-17T12:41:00;6.03;;;5.53;;
44824;SDS011;30542;47.928;2.138;2023-08-17T12:46:01;5.70;;;5.30;;
44824;SDS011;30542;47.928;2.138;2023-08-17T12:51:01;5.73;;;5.20;;
44824;SDS011;30542;47.928;2.138;2023-08-17T12:56:01;4.80;;;4.50;;
44824;SDS011;30542;47.928;2.138;2023-08-17T13:01:02;6.38;;;4.68;;
44824;SDS011;30542;47.928;2.138;2023-08-17T13:06:03;5.15;;;4.75;;
44824;SDS011;30542;47.928;2.138;2023-08-17T13:11:03;5.50;;;5.00;;
44824;SDS011;30542;47.928;2.138;2023-08-17T13:16:03;4.83;;;4.50;;
44824;SDS011;30542;47.928;2.138;2023-08-17T13:21:04;4.88;;;4.43;;
44824;SDS011;30542;47.928;2.138;2023-08-17T13:26:04;5.07;;;4.57;;
44824;SDS011;30542;47.928;2.138;2023-08-17T13:31:05;5.07;;;4.67;;
44824;SDS011;30542;47.928;2.138;2023-08-17T13:36:05;5.00;;;4.60;;
44824;SDS011;30542;47.928;2.138;2023-08-17T13:41:06;5.07;;;4.57;;
44824;SDS011;30542;47.928;2.138;2023-08-17T13:46:06;5.27;;;4.80;;
44824;SDS011;30542;47.928;2.138;2023-08-17T13:51:07;4.88;;;4.50;;
44824;SDS011;30542;47.928;2.138;2023-08-17T13:56:07;4.53;;;4.20;;
44824;SDS011;30542;47.928;2.138;2023-08-17T14:01:08;4.90;;;4.60;;
44824;SDS011;30542;47.928;2.138;2023-08-17T14:06:09;5.38;;;4.97;;
44824;SDS011;30542;47.928;2.138;2023-08-17T14:11:10;5.07;;;4.67;;
44824;SDS011;30542;47.928;2.138;2023-08-17T14:16:10;4.93;;;4.60;;
44824;SDS011;30542;47.928;2.138;2023-08-17T14:21:10;5.50;;;5.00;;
44824;SDS011;30542;47.928;2.138;2023-08-17T14:26:11;4.17;;;3.77;;
44824;SDS011;30542;47.928;2.138;2023-08-17T14:31:11;5.13;;;4.63;;
44824;SDS011;30542;47.928;2.138;2023-08-17T14:36:15;5.65;;;5.07;;
44824;SDS011;30542;47.928;2.138;2023-08-17T14:41:16;5.38;;;4.75;;
44824;SDS011;30542;47.928;2.138;2023-08-17T14:46:17;5.37;;;4.83;;
44824;SDS011;30542;47.928;2.138;2023-08-17T14:51:17;5.23;;;4.77;;
44824;SDS011;30542;47.928;2.138;2023-08-17T14:56:17;5.30;;;4.87;;
44824;SDS011;30542;47.928;2.138;2023-08-17T15:01:18;4.97;;;4.57;;
44824;SDS011;30542;47.928;2.138;2023-08-17T15:06:18;5.47;;;4.97;;
44824;SDS011;30542;47.928;2.138;2023-08-17T15:11:23;5.78;;;5.28;;
44824;SDS011;30542;47.928;2.138;2023-08-17T15:16:23;4.90;;;4.50;;
44824;SDS011;30542;47.928;2.138;2023-08-17T15:21:27;5.38;;;4.80;;
44824;SDS011;30542;47.928;2.138;2023-08-17T15:26:27;5.18;;;4.78;;
44824;SDS011;30542;47.928;2.138;2023-08-17T15:31:28;5.47;;;5.00;;
44824;SDS011;30542;47.928;2.138;2023-08-17T15:36:28;5.13;;;4.73;;
44824;SDS011;30542;47.928;2.138;2023-08-17T15:41:28;5.68;;;5.18;;
44824;SDS011;30542;47.928;2.138;2023-08-17T15:46:29;6.10;;;5.50;;
44824;SDS011;30542;47.928;2.138;2023-08-17T15:51:29;5.13;;;4.73;;
44824;SDS011;30542;47.928;2.138;2023-08-17T15:56:30;5.30;;;4.80;;
44824;SDS011;30542;47.928;2.138;2023-08-17T16:01:30;5.37;;;4.87;;
44824;SDS011;30542;47.928;2.138;2023-08-17T16:06:30;5.78;;;5.22;;
44824;SDS011;30542;47.928;2.138;2023-08-17T16:11:31;4.80;;;4.40;;
44824;SDS011;30542;47.928;2.138;2023-08-17T16:16:31;4.97;;;4.57;;
44824;SDS011;30542;47.928;2.138;2023-08-17T16:21:32;6.38;;;5.18;;
44824;SDS011;30542;47.928;2.138;2023-08-17T16:26:32;5.70;;;5.10;;
44824;SDS011;30542;47.928;2.138;2023-08-17T16:31:33;5.38;;;4.97;;
44824;SDS011;30542;47.928;2.138;2023-08-17T16:36:34;5.38;;;4.88;;
44824;SDS011;30542;47.928;2.138;2023-08-17T16:41:34;5.63;;;5.10;;
44824;SDS011;30542;47.928;2.138;2023-08-17T16:46:35;6.03;;;5.53;;
44824;SDS011;30542;47.928;2.138;2023-08-17T16:51:35;5.25;;;4.85;;
44824;SDS011;30542;47.928;2.138;2023-08-17T16:56:36;6.00;;;5.47;;
44824;SDS011;30542;47.928;2.138;2023-08-17T17:01:39;5.40;;;4.95;;
44824;SDS011;30542;47.928;2.138;2023-08-17T17:06:39;5.60;;;4.87;;
44824;SDS011;30542;47.928;2.138;2023-08-17T17:11:39;5.30;;;4.40;;
44824;SDS011;30542;47.928;2.138;2023-08-17T17:16:40;4.85;;;4.22;;
44824;SDS011;30542;47.928;2.138;2023-08-17T17:21:40;4.63;;;4.20;;
44824;SDS011;30542;47.928;2.138;2023-08-17T17:26:41;5.35;;;4.85;;
44824;SDS011;30542;47.928;2.138;2023-08-17T17:31:41;4.37;;;4.00;;
44824;SDS011;30542;47.928;2.138;2023-08-17T17:36:42;4.75;;;4.35;;
44824;SDS011;30542;47.928;2.138;2023-08-17T17:41:42;5.17;;;4.20;;
44824;SDS011;30542;47.928;2.138;2023-08-17T17:46:43;4.75;;;3.80;;
44824;SDS011;30542;47.928;2.138;2023-08-17T17:51:43;5.00;;;4.60;;
44824;SDS011;30542;47.928;2.138;2023-08-17T17:56:45;5.32;;;4.35;;
44824;SDS011;30542;47.928;2.138;2023-08-17T18:01:46;4.40;;;4.07;;
44824;SDS011;30542;47.928;2.138;2023-08-17T18:06:46;4.13;;;3.83;;
44824;SDS011;30542;47.928;2.138;2023-08-17T18:11:46;4.73;;;4.43;;
44824;SDS011;30542;47.928;2.138;2023-08-17T18:16:47;5.03;;;4.17;;
44824;SDS011;30542;47.928;2.138;2023-08-17T18:21:47;4.83;;;4.43;;
44824;SDS011;30542;47.928;2.138;2023-08-17T18:26:47;5.23;;;4.80;;
44824;SDS011;30542;47.928;2.138;2023-08-17T18:31:48;5.20;;;4.43;;
44824;SDS011;30542;47.928;2.138;2023-08-17T18:36:50;4.68;;;4.22;;
44824;SDS011;30542;47.928;2.138;2023-08-17T18:41:50;4.60;;;4.20;;
44824;SDS011;30542;47.928;2.138;2023-08-17T18:46:50;5.50;;;4.20;;
44824;SDS011;30542;47.928;2.138;2023-08-17T18:51:51;5.37;;;4.80;;
44824;SDS011;30542;47.928;2.138;2023-08-17T18:56:51;4.70;;;4.27;;
44824;SDS011;30542;47.928;2.138;2023-08-17T19:01:51;5.23;;;4.83;;
44824;SDS011;30542;47.928;2.138;2023-08-17T19:06:52;7.22;;;6.25;;
44824;SDS011;30542;47.928;2.138;2023-08-17T19:11:52;7.82;;;7.00;;
44824;SDS011;30542;47.928;2.138;2023-08-17T19:16:53;9.73;;;8.17;;
44824;SDS011;30542;47.928;2.138;2023-08-17T19:21:53;9.63;;;6.57;;
44824;SDS011;30542;47.928;2.138;2023-08-17T19:26:53;6.82;;;6.15;;
44824;SDS011;30542;47.928;2.138;2023-08-17T19:31:54;6.40;;;5.80;;
44824;SDS011;30542;47.928;2.138;2023-08-17T19:36:55;6.88;;;6.18;;
44824;SDS011;30542;47.928;2.138;2023-08-17T19:41:55;6.53;;;5.83;;
44824;SDS011;30542;47.928;2.138;2023-08-17T19:46:55;7.30;;;6.07;;
44824;SDS011;30542;47.928;2.138;2023-08-17T19:51:56;6.07;;;5.57;;
44824;SDS011;30542;47.928;2.138;2023-08-17T19:56:56;5.67;;;5.17;;
44824;SDS011;30542;47.928;2.138;2023-08-17T20:01:57;5.63;;;5.13;;
44824;SDS011;30542;47.928;2.138;2023-08-17T20:06:57;6.03;;;5.43;;
44824;SDS011;30542;47.928;2.138;2023-08-17T20:11:57;5.40;;;4.97;;
44824;SDS011;30542;47.928;2.138;2023-08-17T20:16:58;5.75;;;5.25;;
44824;SDS011;30542;47.928;2.138;2023-08-17T20:21:58;5.43;;;4.93;;
44824;SDS011;30542;47.928;2.138;2023-08-17T20:26:59;5.93;;;5.32;;
44824;SDS011;30542;47.928;2.138;2023-08-17T20:32:00;6.13;;;4.78;;
44824;SDS011;30542;47.928;2.138;2023-08-17T20:37:00;6.22;;;5.63;;
44824;SDS011;30542;47.928;2.138;2023-08-17T20:42:07;5.47;;;4.90;;
44824;SDS011;30542;47.928;2.138;2023-08-17T20:52:10;5.43;;;4.97;;
44824;SDS011;30542;47.928;2.138;2023-08-17T20:57:11;5.80;;;5.15;;
44824;SDS011;30542;47.928;2.138;2023-08-17T21:02:11;5.57;;;5.07;;
44824;SDS011;30542;47.928;2.138;2023-08-17T21:07:11;5.13;;;4.73;;
44824;SDS011;30542;47.928;2.138;2023-08-17T21:12:12;5.03;;;4.57;;
44824;SDS011;30542;47.928;2.138;2023-08-17T21:17:12;5.70;;;5.10;;
44824;SDS011;30542;47.928;2.138;2023-08-17T21:22:13;5.85;;;4.90;;
44824;SDS011;30542;47.928;2.138;2023-08-17T21:27:13;5.40;;;4.60;;
44824;SDS011;30542;47.928;2.138;2023-08-17T21:32:13;4.40;;;4.07;;
44824;SDS011;30542;47.928;2.138;2023-08-17T21:37:22;5.03;;;4.53;;
44824;SDS011;30542;47.928;2.138;2023-08-17T21:42:27;5.93;;;4.43;;
44824;SDS011;30542;47.928;2.138;2023-08-17T21:47:27;4.97;;;4.45;;
44824;SDS011;30542;47.928;2.138;2023-08-17T21:52:27;4.83;;;4.30;;
44824;SDS011;30542;47.928;2.138;2023-08-17T21:57:28;4.57;;;4.13;;
44824;SDS011;30542;47.928;2.138;2023-08-17T22:02:28;4.60;;;4.17;;
44824;SDS011;30542;47.928;2.138;2023-08-17T22:07:28;5.38;;;5.00;;
44824;SDS011;30542;47.928;2.138;2023-08-17T22:12:28;4.93;;;4.53;;
44824;SDS011;30542;47.928;2.138;2023-08-17T22:17:29;5.10;;;4.70;;
44824;SDS011;30542;47.928;2.138;2023-08-17T22:22:29;6.07;;;5.57;;
44824;SDS011;30542;47.928;2.138;2023-08-17T22:27:29;6.30;;;5.70;;
44824;SDS011;30542;47.928;2.138;2023-08-17T22:32:30;6.13;;;5.63;;
44824;SDS011;30542;47.928;2.138;2023-08-17T22:37:30;5.93;;;5.10;;
44824;SDS011;30542;47.928;2.138;2023-08-17T22:42:30;5.63;;;5.13;;
44824;SDS011;30542;47.928;2.138;2023-08-17T22:47:31;7.78;;;5.50;;
44824;SDS011;30542;47.928;2.138;2023-08-17T22:52:31;4.73;;;4.40;;
44824;SDS011;30542;47.928;2.138;2023-08-17T22:57:32;4.67;;;4.27;;
44824;SDS011;30542;47.928;2.138;2023-08-17T23:02:32;4.90;;;4.40;;
44824;SDS011;30542;47.928;2.138;2023-08-17T23:07:32;4.40;;;4.03;;
44824;SDS011;30542;47.928;2.138;2023-08-17T23:12:33;5.30;;;4.90;;
44824;SDS011;30542;47.928;2.138;2023-08-17T23:17:33;4.57;;;3.97;;
44824;SDS011;30542;47.928;2.138;2023-08-17T23:22:34;4.38;;;4.05;;
44824;SDS011;30542;47.928;2.138;2023-08-17T23:27:35;4.60;;;4.22;;
44824;SDS011;30542;47.928;2.138;2023-08-17T23:32:35;5.43;;;3.70;;
44824;SDS011;30542;47.928;2.138;2023-08-17T23:37:35;4.30;;;3.90;;
44824;SDS011;30542;47.928;2.138;2023-08-17T23:42:36;3.60;;;3.30;;
44824;SDS011;30542;47.928;2.138;2023-08-17T23:47:36;4.00;;;3.70;;
44824;SDS011;30542;47.928;2.138;2023-08-17T23:52:36;4.87;;;3.80;;
44824;SDS011;30542;47.928;2.138;2023-08-17T23:57:37;5.23;;;3.73;;
